Time;durP1;ratioP1;P1;durP2;ratioP2;P2;SDS_P1;SDS_P2;PMS_P1;PMS_P2;Temp;Humidity;BMP_temperature;BMP_pressure;BME280_temperature;BME280_humidity;BME280_pressure;Samples;Min_cycle;Max_cycle;Signal;HPM_P1;HPM_P2
2021/06/04 00:01:31;;;;;;;17.23;12.00;;;;;;;-142.75;61.09;77125.44;5013262;28;20045;-76
2021/06/04 00:03:57;;;;;;;19.95;12.27;;;;;;;-142.75;61.17;77137.25;5013082;28;20039;-77
2021/06/04 00:06:23;;;;;;;17.50;11.45;;;;;;;-142.75;61.59;77141.19;5030489;28;20040;-77
2021/06/04 00:08:49;;;;;;;;;;;;;;;-142.75;61.63;77153.00;5013475;28;20022;-77
2021/06/04 00:11:17;;;;;;;17.23;12.55;;;;;;;-142.75;61.84;77168.75;5030827;28;19912;-77
2021/06/04 00:13:44;;;;;;;15.75;11.75;;;;;;;-142.75;61.97;77176.63;5047614;28;20526;-76
2021/06/04 00:16:20;;;;;;;17.08;11.52;;;;;;;-142.75;63.07;77180.56;5032467;28;20078;-77
2021/06/04 00:18:46;;;;;;;17.75;12.30;;;;;;;-142.75;63.39;77202.22;5050660;28;20135;-77
2021/06/04 00:21:16;;;;;;;17.17;12.18;;;;;;;-142.75;63.28;77216.00;5050727;28;20029;-77
2021/06/04 00:23:41;;;;;;;20.08;12.82;;;;;;;-142.75;63.45;77227.81;5050245;28;20032;-77
2021/06/04 00:26:07;;;;;;;;;;;;;;;-142.75;63.45;77229.78;5050374;28;20088;-77
2021/06/04 00:28:33;;;;;;;19.02;11.80;;;;;;;-142.75;63.51;77225.84;5050073;28;19912;-76
2021/06/04 00:30:58;;;;;;;;;;;;;;;-142.75;62.99;77229.78;5050806;28;20039;-77
2021/06/04 00:33:25;;;;;;;16.60;11.70;;;;;;;-142.75;63.32;77229.78;5032101;28;19919;-76
2021/06/04 00:35:50;;;;;;;18.27;12.07;;;;;;;-142.75;62.99;77241.59;5032265;28;20027;-78
2021/06/04 00:38:15;;;;;;;;;;;;;;;-142.75;62.80;77241.59;5049227;28;20104;-76
2021/06/04 00:40:45;;;;;;;18.42;11.27;;;;;;;-142.75;62.62;77249.47;5021309;28;19921;-76
2021/06/04 00:43:11;;;;;;;22.63;11.80;;;;;;;-142.75;62.67;77259.31;5030059;28;20029;-76
2021/06/04 00:45:39;;;;;;;;;;;;;;;-142.75;62.81;77259.31;5030162;28;20036;-75
2021/06/04 00:48:05;;;;;;;13.20;10.50;;;;;;;-142.75;62.77;77275.06;5019154;28;19913;-76
2021/06/04 00:50:54;;;;;;;16.80;11.95;;;;;;;-142.75;63.13;77286.88;5050348;28;20496;-76
2021/06/04 00:53:23;;;;;;;19.92;11.63;;;;;;;-142.75;63.24;77294.75;5032221;28;20017;-77
2021/06/04 00:55:49;;;;;;;18.52;11.10;;;;;;;-142.75;62.83;77288.84;5049425;28;20075;-76
2021/06/04 00:58:18;;;;;;;16.80;10.73;;;;;;;-142.75;62.33;77275.06;5049790;28;20865;-76
2021/06/04 01:00:50;;;;;;;18.95;10.15;;;;;;;-142.75;61.81;77275.06;5037430;28;20025;-77
2021/06/04 01:03:17;;;;;;;14.57;10.65;;;;;;;-142.75;61.90;77275.06;5013750;28;20033;-77
2021/06/04 01:05:43;;;;;;;18.10;10.60;;;;;;;-142.75;61.86;77275.06;5011901;28;20025;-75
2021/06/04 01:08:27;;;;;;;;;;;;;;;-142.75;62.49;77277.03;5045062;28;20518;-77
2021/06/04 01:11:10;;;;;;;15.13;10.25;;;;;;;-142.75;62.82;77288.84;5031827;28;19913;-76
2021/06/04 01:14:02;;;;;;;16.33;10.35;;;;;;;-142.75;62.58;77290.81;5032112;28;20116;-76
2021/06/04 01:16:37;;;;;;;15.48;9.85;;;;;;;-142.75;62.74;77298.69;5031723;28;20048;-77
2021/06/04 01:19:33;;;;;;;14.73;10.15;;;;;;;-142.75;63.08;77306.56;5049960;28;20515;-75
2021/06/04 01:22:03;;;;;;;17.90;11.40;;;;;;;-142.75;63.15;77312.47;5049822;28;20394;-76
2021/06/04 01:24:46;;;;;;;18.85;12.23;;;;;;;-142.75;62.83;77310.50;5021380;28;20021;-76
2021/06/04 01:27:31;;;;;;;16.95;11.70;;;;;;;-142.75;63.21;77306.56;5048793;28;20037;-78
2021/06/04 01:30:22;;;;;;;20.42;11.73;;;;;;;-142.75;63.12;77316.41;5029681;28;20032;-76
2021/06/04 01:32:50;;;;;;;17.05;11.00;;;;;;;-142.75;63.11;77318.38;5037726;28;20037;-77
2021/06/04 01:35:24;;;;;;;13.32;9.40;;;;;;;-142.75;63.08;77318.38;5049246;28;20029;-75
2021/06/04 01:37:51;;;;;;;15.52;11.30;;;;;;;-142.75;63.18;77310.50;5031513;28;20110;-77
2021/06/04 01:40:30;;;;;;;15.50;11.35;;;;;;;-142.75;62.86;77322.31;5018339;28;20014;-77
2021/06/04 01:42:58;;;;;;;17.08;11.50;;;;;;;-142.75;62.99;77320.34;5029661;28;20026;-77
2021/06/04 01:45:31;;;;;;;19.65;10.80;;;;;;;-142.75;63.56;77320.34;5011688;28;21616;-75
2021/06/04 01:48:01;;;;;;;17.98;11.32;;;;;;;-142.75;64.12;77342.00;5029635;28;20044;-76
2021/06/04 01:50:42;;;;;;;16.17;10.77;;;;;;;-142.75;64.24;77353.81;5029899;28;20052;-76
2021/06/04 01:53:12;;;;;;;14.82;11.07;;;;;;;-142.75;64.23;77363.66;5029755;28;20028;-76
2021/06/04 01:55:42;;;;;;;17.85;11.10;;;;;;;-142.75;64.64;77369.56;5029228;28;20026;-76
2021/06/04 01:58:13;;;;;;;14.85;11.70;;;;;;;-142.75;64.81;77375.47;5029653;28;20031;-76
2021/06/04 02:00:49;;;;;;;21.73;13.27;;;;;;;-142.75;65.58;77373.50;5011798;28;20372;-76
2021/06/04 02:03:18;;;;;;;24.65;17.08;;;;;;;-142.75;67.02;77375.47;5029321;28;20033;-76
2021/06/04 02:05:45;;;;;;;26.50;17.13;;;;;;;-142.75;68.43;77365.63;5029082;28;20051;-75
2021/06/04 02:08:14;;;;;;;29.63;17.48;;;;;;;-142.75;68.76;77357.75;5030527;28;20040;-75
2021/06/04 02:10:48;;;;;;;23.88;16.48;;;;;;;-142.75;68.26;77351.84;5061914;23;20044;-76
2021/06/04 02:13:14;;;;;;;21.85;15.60;;;;;;;-142.75;67.39;77353.81;5030735;28;20437;-75
2021/06/04 02:15:46;;;;;;;;;;;;;;;-142.75;66.84;77353.81;5053182;28;20021;-75
2021/06/04 02:18:35;;;;;;;26.52;16.50;;;;;;;-142.75;67.51;77338.06;5052965;28;20007;-75
2021/06/04 02:21:13;;;;;;;20.27;14.73;;;;;;;-142.75;67.63;77336.09;5053879;28;20032;-76
2021/06/04 02:23:41;;;;;;;20.08;13.00;;;;;;;-142.75;66.32;77345.94;5051891;28;20363;-75
2021/06/04 02:26:32;;;;;;;22.85;13.32;;;;;;;-142.75;66.03;77357.75;5051407;28;20043;-75
2021/06/04 02:29:08;;;;;;;18.35;12.27;;;;;;;-142.75;65.61;77369.56;5051946;28;20032;-75
2021/06/04 02:31:42;;;;;;;19.88;12.18;;;;;;;-142.75;65.40;77379.41;5052872;28;20028;-76
2021/06/04 02:34:15;;;;;;;16.08;11.00;;;;;;;-142.75;65.19;77385.31;5053307;28;20112;-76
2021/06/04 02:36:49;;;;;;;17.55;12.77;;;;;;;-142.75;65.36;77387.28;5052810;28;20021;-76
2021/06/04 02:39:36;;;;;;;16.70;11.77;;;;;;;-142.75;65.57;77387.28;5051904;28;20035;-76
2021/06/04 02:42:35;;;;;;;16.48;11.05;;;;;;;-142.75;65.37;77391.22;5052783;28;20056;-75
2021/06/04 02:45:17;;;;;;;13.10;9.23;;;;;;;-142.75;65.34;77393.19;5072521;28;20032;-75
2021/06/04 02:47:46;;;;;;;18.15;12.68;;;;;;;-142.75;65.99;77399.09;5072267;28;20031;-76
2021/06/04 02:50:22;;;;;;;19.80;12.60;;;;;;;-142.75;65.96;77401.06;5073224;28;20598;-75
2021/06/04 02:52:47;;;;;;;21.40;15.88;;;;;;;-142.75;66.43;77393.19;5071344;28;20028;-76
2021/06/04 02:55:25;;;;;;;;;;;;;;;-142.75;66.21;77391.22;5072576;28;20489;-76
2021/06/04 02:57:50;;;;;;;22.98;15.55;;;;;;;-142.75;66.28;77383.34;5071079;28;19913;-76
2021/06/04 03:00:23;;;;;;;;;;;;;;;-142.75;66.05;77381.38;5072968;28;20025;-76
2021/06/04 03:02:49;;;;;;;22.92;15.45;;;;;;;-142.75;66.32;77377.44;5072672;28;20471;-76
2021/06/04 03:05:23;;;;;;;24.52;15.82;;;;;;;-142.75;66.33;77375.47;5070760;28;20028;-75
2021/06/04 03:07:48;;;;;;;18.90;12.93;;;;;;;-142.75;66.84;77355.78;5072504;28;20024;-75
2021/06/04 03:10:17;;;;;;;;;;;;;;;-142.75;66.30;77363.66;5072249;28;20103;-76
2021/06/04 03:12:45;;;;;;;18.90;12.57;;;;;;;-142.75;66.62;77381.38;5071236;28;19935;-76
2021/06/04 03:15:17;;;;;;;25.00;15.18;;;;;;;-142.75;67.49;77385.31;5071036;28;20094;-76
2021/06/04 03:17:43;;;;;;;28.60;16.63;;;;;;;-142.75;67.81;77389.25;5072299;28;20119;-76
2021/06/04 03:20:11;;;;;;;27.25;16.98;;;;;;;-142.75;67.29;77401.06;5072759;28;20078;-75
2021/06/04 03:22:41;;;;;;;32.30;17.83;;;;;;;-142.75;67.21;77393.19;5070762;28;20393;-75
2021/06/04 03:25:13;;;;;;;23.15;15.60;;;;;;;-142.75;67.35;77393.19;5069968;28;20063;-74
2021/06/04 03:27:39;;;;;;;18.17;12.73;;;;;;;-142.75;67.25;77389.25;5069915;28;20039;-75
2021/06/04 03:30:07;;;;;;;17.15;11.25;;;;;;;-142.75;66.69;77395.16;5071705;28;20533;-76
2021/06/04 03:32:33;;;;;;;15.05;11.18;;;;;;;-142.75;66.60;77393.19;5071742;28;20602;-76
2021/06/04 03:34:58;;;;;;;;;;;;;;;-142.75;66.63;77389.25;5072340;28;20035;-75
2021/06/04 03:37:23;;;;;;;16.75;12.50;;;;;;;-142.75;66.22;77401.06;5071758;28;19912;-76
2021/06/04 03:39:49;;;;;;;;;;;;;;;-142.75;66.45;77408.94;5071906;28;20469;-75
2021/06/04 03:42:20;;;;;;;18.13;12.93;;;;;;;-142.75;66.39;77422.72;5071894;28;20007;-75
2021/06/04 03:44:48;;;;;;;24.30;15.35;;;;;;;-142.75;66.70;77426.66;5071516;28;20056;-75
2021/06/04 03:47:14;;;;;;;24.48;16.17;;;;;;;-142.75;66.94;77424.69;5070867;28;20494;-74
2021/06/04 03:49:39;;;;;;;22.95;16.45;;;;;;;-142.75;66.85;77422.72;5072319;28;20025;-76
2021/06/04 03:52:08;;;;;;;23.95;16.00;;;;;;;-142.75;66.48;77422.72;5072086;28;20473;-76
2021/06/04 03:54:37;;;;;;;23.50;15.60;;;;;;;-142.75;66.40;77424.69;5071581;28;20029;-76
2021/06/04 03:57:08;;;;;;;24.67;14.77;;;;;;;-142.75;66.70;77416.81;5071134;28;20032;-76
2021/06/04 03:59:33;;;;;;;21.95;14.18;;;;;;;-142.75;67.04;77395.16;5070171;28;20039;-76
2021/06/04 04:02:00;;;;;;;;;;;;;;;-142.75;66.76;77401.06;5071676;28;20028;-76
2021/06/04 04:04:26;;;;;;;28.02;19.23;;;;;;;-142.75;67.27;77410.91;5071422;28;19912;-75
2021/06/04 04:06:52;;;;;;;32.90;20.75;;;;;;;-142.75;67.80;77416.81;5070557;28;20487;-76
2021/06/04 04:09:18;;;;;;;40.25;24.50;;;;;;;-142.75;69.23;77405.00;5071471;28;20024;-76
2021/06/04 04:11:44;;;;;;;;;;;;;;;-142.75;68.39;77401.06;5071287;28;20047;-75
2021/06/04 04:14:10;;;;;;;26.35;17.90;;;;;;;-142.75;67.89;77397.13;5071252;28;19916;-76
2021/06/04 04:16:35;;;;;;;;;;;;;;;-142.75;67.60;77379.41;5071400;28;20035;-76
2021/06/04 04:19:01;;;;;;;28.35;18.15;;;;;;;-142.75;67.38;77365.63;5069492;28;19955;-76
2021/06/04 04:21:26;;;;;;;;;;;;;;;-142.75;68.84;77353.81;5071029;28;20024;-76
2021/06/04 04:23:56;;;;;;;36.90;21.63;;;;;;;-142.75;68.73;77342.00;5069815;28;19916;-75
2021/06/04 04:26:28;;;;;;;30.92;20.42;;;;;;;-142.75;68.10;77334.13;5070332;28;20398;-76
2021/06/04 04:28:54;;;;;;;31.48;18.42;;;;;;;-142.75;67.76;77318.38;5071117;28;20020;-75
2021/06/04 04:31:21;;;;;;;;;;;;;;;-142.75;67.56;77304.59;5070866;28;20520;-75
2021/06/04 04:33:47;;;;;;;39.10;23.10;;;;;;;-142.75;68.30;77294.75;5070762;28;19912;-75
2021/06/04 04:36:13;;;;;;;;;;;;;;;-142.75;68.15;77280.97;5063082;28;20067;-75
2021/06/04 04:38:39;;;;;;;32.72;20.73;;;;;;;-142.75;67.56;77271.13;5049276;28;19916;-74
2021/06/04 04:41:05;;;;;;;;;;;;;;;-142.75;67.52;77265.22;5050565;28;20032;-74
2021/06/04 04:43:35;;;;;;;31.98;20.15;;;;;;;-142.75;67.05;77253.41;5050132;28;20377;-74
2021/06/04 04:46:02;;;;;;;30.63;20.70;;;;;;;-142.75;66.72;77239.63;5048641;28;20100;-75
2021/06/04 04:48:27;;;;;;;34.58;19.90;;;;;;;-142.75;66.64;77219.94;5047834;28;20021;-74
2021/06/04 04:50:53;;;;;;;;;;;;;;;-142.75;66.83;77198.28;5050299;28;20044;-74
2021/06/04 04:53:19;;;;;;;32.83;20.10;;;;;;;-142.75;66.55;77176.63;5049244;28;19920;-74
2021/06/04 04:55:44;;;;;;;;;;;;;;;-142.75;66.35;77162.84;5049390;28;20137;-73
2021/06/04 04:58:10;;;;;;;36.38;21.67;;;;;;;-142.75;63.97;77170.72;5049329;28;20402;-73
2021/06/04 05:00:38;;;;;;;40.22;24.38;;;;;;;-142.75;63.41;77162.84;5048994;28;20150;-74
2021/06/04 05:03:05;;;;;;;38.50;23.52;;;;;;;-142.75;62.45;77156.94;5049086;28;20029;-74
2021/06/04 05:05:31;;;;;;;36.47;22.90;;;;;;;-142.75;62.80;77143.16;5048799;28;20497;-74
2021/06/04 05:07:57;;;;;;;42.33;23.63;;;;;;;-142.75;62.57;77127.41;5058612;28;20071;-74
2021/06/04 05:10:22;;;;;;;;;;;;;;;-142.75;61.59;77111.66;5069289;28;20486;-74
2021/06/04 05:12:48;;;;;;;32.90;22.17;;;;;;;-142.75;61.61;77082.13;5069721;28;19912;-75
2021/06/04 05:15:16;;;;;;;;;;;;;;;-142.75;62.24;77050.63;5070075;28;20107;-75
2021/06/04 05:17:42;;;;;;;;;;;;;;;-142.75;61.85;77021.09;5068922;28;20305;-74
2021/06/04 05:20:09;;;;;;;38.03;22.90;;;;;;;-142.75;61.43;76995.50;5070227;28;19912;-74
2021/06/04 05:22:34;;;;;;;33.45;21.17;;;;;;;-142.75;61.00;76971.88;5069655;28;20271;-74
2021/06/04 05:25:00;;;;;;;33.83;21.42;;;;;;;-142.75;60.16;76940.38;5068751;28;20148;-74
2021/06/04 05:27:25;;;;;;;;;;;;;;;-142.75;59.44;76904.94;5069701;28;20106;-75
2021/06/04 05:29:51;;;;;;;35.17;20.27;;;;;;;-142.75;58.63;76869.50;5068628;28;20424;-75
2021/06/04 05:32:17;;;;;;;;;;;;;;;-142.75;57.88;76826.19;5053867;28;20560;-75
2021/06/04 05:34:43;;;;;;;37.90;20.87;;;;;;;-142.75;57.35;76784.88;5048669;28;19916;-74
2021/06/04 05:37:08;;;;;;;34.22;21.17;;;;;;;-142.75;55.23;76786.84;5049195;28;20017;-75
2021/06/04 05:39:33;;;;;;;34.28;21.10;;;;;;;-142.75;55.99;76802.56;5051070;28;20024;-75
2021/06/04 05:42:03;;;;;;;33.42;19.08;;;;;;;-142.75;54.69;76743.53;5048193;28;20025;-74
2021/06/04 05:44:31;;;;;;;29.42;19.95;;;;;;;-142.75;53.64;76710.06;5049375;28;20028;-75
2021/06/04 05:47:00;;;;;;;30.77;19.77;;;;;;;-142.75;54.01;76654.94;5049283;28;20028;-74
2021/06/04 05:49:27;;;;;;;31.60;20.00;;;;;;;-142.75;53.26;76605.72;5050095;28;20025;-74
2021/06/04 05:51:54;;;;;;;28.83;18.73;;;;;;;-142.75;52.98;76562.41;5051755;28;20060;-75
2021/06/04 05:54:20;;;;;;;28.42;19.10;;;;;;;-142.75;51.84;76525.03;5052191;28;20405;-75
2021/06/04 05:56:46;;;;;;;30.42;18.95;;;;;;;-142.75;51.72;76517.16;5053298;28;20024;-75
2021/06/04 05:59:13;;;;;;;28.20;18.33;;;;;;;-142.75;50.58;76509.28;5053133;28;20048;-73
2021/06/04 06:01:39;;;;;;;29.35;18.40;;;;;;;-142.75;50.29;76517.16;5073108;28;20400;-72
2021/06/04 06:04:06;;;;;;;36.20;18.25;;;;;;;-142.75;50.51;76507.31;5071991;28;20074;-72
2021/06/04 06:06:32;;;;;;;34.47;18.63;;;;;;;-142.75;50.17;76521.09;5071344;28;20032;-72
2021/06/04 06:08:58;;;;;;;26.08;18.08;;;;;;;-142.75;50.08;76511.25;5071655;28;20032;-71
2021/06/04 06:11:26;;;;;;;31.40;17.92;;;;;;;-142.75;50.09;76503.38;5070842;28;20085;-72
2021/06/04 06:13:53;;;;;;;25.85;17.63;;;;;;;-142.75;49.76;76499.44;5072106;28;20024;-72
2021/06/04 06:16:19;;;;;;;31.40;18.90;;;;;;;-142.75;49.94;76503.38;5071766;28;20390;-71
2021/06/04 06:18:45;;;;;;;28.75;17.45;;;;;;;-142.75;48.99;76487.63;5070795;28;20028;-72
2021/06/04 06:21:11;;;;;;;28.75;17.27;;;;;;;-142.75;49.18;76483.69;5067157;28;20459;-71
2021/06/04 06:23:37;;;;;;;26.95;18.30;;;;;;;-142.75;48.23;76477.78;5062491;28;20028;-72
2021/06/04 06:26:13;;;;;;;31.67;18.83;;;;;;;-142.75;46.92;76426.59;5071373;28;20036;-72
2021/06/04 06:28:41;;;;;;;25.88;17.27;;;;;;;-142.75;46.73;76355.72;5071796;28;20058;-72
2021/06/04 06:31:12;;;;;;;29.92;18.38;;;;;;;-142.75;46.22;76265.19;5071934;28;20056;-72
2021/06/04 06:33:37;;;;;;;26.20;16.40;;;;;;;-142.75;45.52;76219.91;5071812;28;20028;-72
2021/06/04 06:36:12;;;;;;;26.90;17.40;;;;;;;-142.75;45.37;76298.66;5071153;28;20078;-72
2021/06/04 06:38:37;;;;;;;26.63;16.70;;;;;;;-142.75;45.46;76345.91;5070424;28;20166;-71
2021/06/04 06:41:07;;;;;;;28.30;17.20;;;;;;;-142.75;44.61;76308.50;5071477;28;20115;-71
2021/06/04 06:43:34;;;;;;;31.73;17.73;;;;;;;-142.75;45.53;76393.13;5071714;28;20032;-72
2021/06/04 06:46:00;;;;;;;26.85;16.23;;;;;;;-142.75;45.43;76365.56;5069552;28;20021;-72
2021/06/04 06:48:26;;;;;;;25.48;16.90;;;;;;;-142.75;44.54;76343.94;5071609;28;20028;-73
2021/06/04 06:50:52;;;;;;;27.83;15.25;;;;;;;-142.75;45.33;76286.84;5070247;28;20024;-72
2021/06/04 06:53:18;;;;;;;25.85;17.20;;;;;;;-142.75;44.42;76239.59;5070942;28;20043;-71
2021/06/04 06:55:45;;;;;;;21.88;14.98;;;;;;;-142.75;43.64;76204.16;5069815;28;20069;-71
2021/06/04 06:58:11;;;;;;;21.45;14.98;;;;;;;-142.75;44.21;76121.50;5064925;28;20035;-72
2021/06/04 07:00:41;;;;;;;25.25;16.20;;;;;;;-142.75;43.08;76015.22;5060058;28;20021;-72
2021/06/04 07:03:09;;;;;;;26.65;15.45;;;;;;;-142.75;41.59;75950.28;5064113;28;20123;-73
2021/06/04 07:05:36;;;;;;;24.63;15.43;;;;;;;-142.75;41.74;75893.19;5059359;28;20029;-73
2021/06/04 07:08:02;;;;;;;26.55;15.90;;;;;;;-142.75;41.21;75845.97;5061885;28;20028;-72
2021/06/04 07:10:29;;;;;;;23.15;15.48;;;;;;;-142.75;40.57;75834.16;5060870;28;20120;-73
2021/06/04 07:13:01;;;;;;;26.23;15.63;;;;;;;-142.75;40.38;75834.16;5057104;28;20047;-73
2021/06/04 07:15:27;;;;;;;22.67;15.95;;;;;;;-142.75;40.25;75938.47;5051392;28;20036;-72
2021/06/04 07:17:54;;;;;;;24.88;16.23;;;;;;;-142.75;41.36;76003.41;5070825;28;20028;-71
2021/06/04 07:20:23;;;;;;;25.02;15.10;;;;;;;-142.75;41.62;76011.28;5071293;28;20069;-71
2021/06/04 07:22:49;;;;;;;22.63;15.48;;;;;;;-142.75;43.33;76025.06;5071183;28;20086;-74
2021/06/04 07:25:15;;;;;;;24.13;14.48;;;;;;;-142.75;39.67;75977.81;5070158;28;20029;-72
2021/06/04 07:27:46;;;;;;;23.73;15.50;;;;;;;-142.75;41.14;76029.00;5071145;28;20025;-72
2021/06/04 07:30:18;;;;;;;25.70;16.75;;;;;;;-142.75;40.67;75995.53;5071191;28;20584;-73
2021/06/04 07:32:44;;;;;;;25.50;16.67;;;;;;;-142.75;40.03;75924.69;5069936;28;20035;-72
2021/06/04 07:35:14;;;;;;;26.00;17.15;;;;;;;-142.75;41.27;75971.91;5070908;28;20107;-72
2021/06/04 07:37:39;;;;;;;25.45;15.85;;;;;;;-142.75;40.42;75847.94;5071136;28;20028;-73
2021/06/04 07:40:19;;;;;;;25.73;15.02;;;;;;;-142.75;38.62;75779.03;5071106;28;20025;-72
2021/06/04 07:42:44;;;;;;;25.73;16.77;;;;;;;-142.75;38.90;75800.69;5071000;28;20036;-72
2021/06/04 07:45:10;;;;;;;25.58;15.82;;;;;;;-142.75;40.15;75975.84;5069642;28;20027;-72
2021/06/04 07:47:36;;;;;;;22.27;15.30;;;;;;;-142.75;38.41;75830.22;5067112;28;20503;-72
2021/06/04 07:50:06;;;;;;;24.38;14.18;;;;;;;-142.75;38.71;75895.16;5058746;28;20450;-73
2021/06/04 07:52:31;;;;;;;27.48;16.02;;;;;;;-142.75;38.62;75895.16;5058957;28;20442;-73
2021/06/04 07:54:59;;;;;;;21.70;14.65;;;;;;;-142.75;39.39;75891.22;5060534;28;20063;-72
2021/06/04 07:57:25;;;;;;;24.50;15.88;;;;;;;-142.75;38.83;75893.19;5069769;28;20112;-73
2021/06/04 07:59:50;;;;;;;21.38;14.70;;;;;;;-142.75;38.87;75788.88;5068724;28;20032;-72
2021/06/04 08:02:16;;;;;;;21.70;14.40;;;;;;;-142.75;37.77;75747.56;5069295;28;20081;-71
2021/06/04 08:04:41;;;;;;;22.55;13.75;;;;;;;-142.75;38.19;75761.34;5070566;28;20024;-73
2021/06/04 08:07:06;;;;;;;22.02;13.32;;;;;;;-142.75;38.43;75674.72;5070213;28;20024;-72
2021/06/04 08:09:31;;;;;;;19.38;13.57;;;;;;;-142.75;37.15;75664.91;5070183;28;20044;-72
2021/06/04 08:12:03;;;;;;;18.30;12.50;;;;;;;-142.75;36.90;75499.59;5068567;28;20056;-71
2021/06/04 08:14:29;;;;;;;19.70;12.95;;;;;;;-142.75;35.73;75430.72;5070413;28;20024;-72
2021/06/04 08:16:58;;;;;;;18.40;11.82;;;;;;;-142.75;33.73;75395.28;5070228;28;20112;-72
2021/06/04 08:19:24;;;;;;;17.45;11.02;;;;;;;-142.75;36.13;75440.53;5069918;28;20115;-72
2021/06/04 08:21:52;;;;;;;19.08;10.55;;;;;;;-142.75;34.10;75342.16;5070323;28;20035;-72
2021/06/04 08:24:20;;;;;;;17.60;9.57;;;;;;;-142.75;34.28;75271.31;5070247;28;20028;-72
2021/06/04 08:26:46;;;;;;;15.02;8.98;;;;;;;-142.75;32.88;75265.41;5069655;28;20033;-72
2021/06/04 08:29:12;;;;;;;16.48;11.20;;;;;;;-142.75;32.98;75212.28;5070162;28;20029;-72
2021/06/04 08:31:38;;;;;;;20.95;11.82;;;;;;;-142.75;32.83;75204.41;5070153;28;20032;-72
2021/06/04 08:34:05;;;;;;;14.00;11.50;;;;;;;-142.75;34.14;75239.81;5069894;28;20024;-72
2021/06/04 08:36:35;;;;;;;15.80;10.63;;;;;;;-142.75;34.33;75277.22;5069611;28;20056;-72
2021/06/04 08:39:03;;;;;;;14.45;11.50;;;;;;;-142.75;34.66;75542.88;5070067;28;20028;-72
2021/06/04 08:42:00;;;;;;;15.80;10.52;;;;;;;-142.75;36.10;75450.38;5070054;28;20046;-72
2021/06/04 08:44:33;;;;;;;17.40;11.65;;;;;;;-142.75;34.94;75361.84;5069964;28;20024;-72
2021/06/04 08:47:14;;;;;;;17.27;12.18;;;;;;;-142.75;35.45;75385.44;5069772;28;20036;-73
2021/06/04 08:50:03;;;;;;;14.27;9.75;;;;;;;-142.75;32.75;75314.59;5069923;28;20056;-72
2021/06/04 08:52:54;;;;;;;11.15;9.00;;;;;;;-142.75;35.41;75405.13;5070064;28;20020;-72
2021/06/04 08:55:31;;;;;;;14.65;10.30;;;;;;;-142.75;34.03;75216.22;5085137;28;20166;-72
2021/06/04 08:58:26;;;;;;;17.00;11.82;;;;;;;-142.75;34.04;75326.41;5069773;28;20037;-72
2021/06/04 09:01:01;;;;;;;19.48;11.13;;;;;;;-142.75;34.75;75350.03;5069193;28;20032;-72
2021/06/04 09:03:36;;;;;;;20.83;12.55;;;;;;;-142.75;35.61;75578.31;5068240;28;20024;-72
2021/06/04 09:06:07;;;;;;;16.75;10.73;;;;;;;-142.75;38.20;75641.28;5069427;28;20039;-72
2021/06/04 09:08:36;;;;;;;16.58;8.57;;;;;;;-142.75;37.65;75613.72;5069800;28;20028;-72
2021/06/04 09:11:12;;;;;;;10.65;8.70;;;;;;;-142.75;35.90;75653.09;5069716;28;20020;-72
2021/06/04 09:13:38;;;;;;;;;;;;;;;-142.75;37.20;75767.22;5069046;28;20028;-71
2021/06/04 09:16:34;;;;;;;16.45;10.00;;;;;;;-142.75;38.53;75798.72;5069210;28;19912;-72
2021/06/04 09:19:22;;;;;;;17.67;11.43;;;;;;;-142.75;39.18;75798.72;5069531;28;20078;-72
2021/06/04 09:21:49;;;;;;;15.90;9.32;;;;;;;-142.75;37.94;75682.59;5069844;28;20039;-71
2021/06/04 09:24:24;;;;;;;16.17;9.70;;;;;;;-142.75;38.14;75615.69;5052943;28;20102;-71
2021/06/04 09:26:49;;;;;;;14.65;8.80;;;;;;;-142.75;37.76;75558.63;5053036;28;20029;-72
2021/06/04 09:29:24;;;;;;;16.75;10.38;;;;;;;-142.75;37.26;75446.44;5053556;28;20032;-72
2021/06/04 09:32:16;;;;;;;16.40;11.10;;;;;;;-142.75;34.42;75285.09;5052007;28;20021;-71
2021/06/04 09:34:41;;;;;;;17.25;11.95;;;;;;;-142.75;32.54;75245.72;5053351;28;20059;-73
2021/06/04 09:37:27;;;;;;;17.67;10.98;;;;;;;-142.75;34.56;75269.34;5053102;28;20482;-71
2021/06/04 09:40:07;;;;;;;15.80;10.85;;;;;;;-142.75;34.23;75302.78;5052109;28;20124;-71
2021/06/04 09:42:33;;;;;;;17.02;12.35;;;;;;;-142.75;35.33;75350.03;5053208;28;20112;-72
2021/06/04 09:45:01;;;;;;;20.33;12.90;;;;;;;-142.75;34.76;75263.44;5053296;28;20028;-72
2021/06/04 09:47:35;;;;;;;17.45;13.43;;;;;;;-142.75;34.65;75263.44;5052908;28;20501;-72
2021/06/04 09:50:23;;;;;;;20.30;12.95;;;;;;;-142.75;35.44;75318.53;5051620;28;20410;-72
2021/06/04 09:53:08;;;;;;;18.90;13.93;;;;;;;-142.75;34.19;75424.81;5052597;28;20041;-74
2021/06/04 09:55:46;;;;;;;20.08;14.73;;;;;;;-142.75;35.54;75353.97;5051526;28;20402;-72
2021/06/04 09:58:27;;;;;;;18.40;14.02;;;;;;;-142.75;34.63;75212.28;5051905;28;20017;-72
2021/06/04 10:00:57;;;;;;;19.95;14.20;;;;;;;-142.75;34.52;75226.06;5051512;28;20078;-72
2021/06/04 10:03:40;;;;;;;20.15;14.40;;;;;;;-142.75;34.54;75172.91;5052712;28;20509;-71
2021/06/04 10:06:06;;;;;;;18.45;12.80;;;;;;;-142.75;33.56;75172.91;5052598;28;20044;-72
2021/06/04 10:08:41;;;;;;;18.58;12.95;;;;;;;-142.75;33.35;75119.78;5052842;28;20029;-71
2021/06/04 10:11:24;;;;;;;22.52;13.75;;;;;;;-142.75;34.70;75198.50;5052979;28;20088;-72
2021/06/04 10:14:15;;;;;;;22.55;15.18;;;;;;;-142.75;32.66;75255.56;5072270;28;20433;-72
2021/06/04 10:19:34;;;;;;;22.58;15.63;;;;;;;-142.75;35.36;75322.47;5072506;28;20032;-73
2021/06/04 10:22:15;;;;;;;25.02;15.05;;;;;;;-142.75;33.95;75226.06;5071436;28;20041;-72
2021/06/04 10:24:45;;;;;;;28.15;15.93;;;;;;;-142.75;34.61;75111.91;5071170;28;20500;-72
2021/06/04 10:27:34;;;;;;;26.17;15.20;;;;;;;-142.75;32.89;75025.34;5072353;28;20399;-72
2021/06/04 10:30:08;;;;;;;20.95;13.70;;;;;;;-142.75;32.46;74964.34;5072374;28;20020;-73
2021/06/04 10:32:40;;;;;;;20.73;12.52;;;;;;;-142.75;31.76;74873.81;5072129;28;20513;-73
2021/06/04 10:35:16;;;;;;;21.55;12.48;;;;;;;-142.75;31.43;74989.91;5072158;28;20033;-73
2021/06/04 10:37:52;;;;;;;20.02;13.65;;;;;;;-142.75;32.86;75206.38;5072503;28;20024;-74
2021/06/04 10:40:28;;;;;;;19.75;15.77;;;;;;;-142.75;35.97;75493.69;5071097;28;20052;-73
2021/06/04 10:43:09;;;;;;;19.23;15.15;;;;;;;-142.75;37.50;75556.66;5051183;28;20163;-72
2021/06/04 10:45:42;;;;;;;19.67;13.63;;;;;;;-142.75;38.91;75596.00;5050717;28;20044;-71
2021/06/04 10:48:36;;;;;;;24.70;17.33;;;;;;;-142.75;37.73;75635.38;5070983;28;20021;-71
2021/06/04 10:51:19;;;;;;;26.58;17.65;;;;;;;-142.75;38.02;75700.31;5070939;28;20082;-72
2021/06/04 10:54:20;;;;;;;21.38;15.65;;;;;;;-142.75;39.90;75615.69;5070853;28;20028;-72
2021/06/04 10:56:57;;;;;;;21.70;15.77;;;;;;;-142.75;37.09;75422.84;5046722;28;20123;-72
2021/06/04 10:59:35;;;;;;;19.52;14.00;;;;;;;-142.75;37.04;75296.88;5052109;28;20502;-75
2021/06/04 11:02:32;;;;;;;21.80;16.00;;;;;;;-142.75;33.43;75159.16;5050640;28;20123;-73
2021/06/04 11:05:16;;;;;;;;;;;;;;;-142.75;34.71;75149.31;5051243;28;20125;-74
2021/06/04 11:08:07;;;;;;;22.90;15.60;;;;;;;-142.75;34.86;75292.97;5050425;28;19921;-73
2021/06/04 11:10:48;;;;;;;21.70;15.55;;;;;;;-142.75;35.26;75475.97;5050256;28;20506;-73
2021/06/04 11:13:47;;;;;;;19.95;14.07;;;;;;;-142.75;38.37;75503.53;5051677;28;20378;-74
2021/06/04 11:16:39;;;;;;;19.45;12.95;;;;;;;-142.75;35.29;75485.81;5051232;28;20118;-73
2021/06/04 11:19:19;;;;;;;16.33;11.18;;;;;;;-142.75;36.21;75391.34;5051426;28;20033;-73
2021/06/04 11:21:55;;;;;;;21.67;13.48;;;;;;;-142.75;35.28;75298.84;5050433;28;20088;-73
2021/06/04 11:24:20;;;;;;;19.15;14.88;;;;;;;-142.75;35.07;75352.00;5051573;28;20035;-74
2021/06/04 11:26:51;;;;;;;19.08;13.63;;;;;;;-142.75;35.95;75346.09;5051133;28;20021;-74
2021/06/04 11:29:20;;;;;;;19.92;15.52;;;;;;;-142.75;36.95;75475.97;5051352;28;20025;-73
2021/06/04 11:32:17;;;;;;;27.60;16.17;;;;;;;-142.75;36.12;75529.09;5071157;28;20029;-72